Flight Track Log - Related Links

Times and Time Zones

All times are in EDT time to prevent confusion due to time zone crossing. See the N27XP flight status page for this flight to view local times or setup timezone preferences in your user account.

Time Position Orientation Groundspeed Altitude Reporting Facility
EDT Latitude Longitude Course Direction KTS MPH feet Rate Location/Type
Fri 14:45:54 35.3500 -79.2819 36° Northeast 236 272 6,900  Level Washington Center
Fri 14:46:55 35.4017 -79.2358 36° Northeast 236 272 9,300 2,579 Climbing Washington Center
Fri 14:47:55 35.4639 -79.1775 37° Northeast 243 280 12,100 2,542 Climbing Washington Center
Fri 14:48:53 35.5133 -79.1286 39° Northeast 248 285 14,300 1,815 Climbing Washington Center
Fri 14:49:54 35.5733 -79.0728 37° Northeast 253 291 15,700 1,475 Climbing Washington Center
Fri 14:50:55 35.6419 -79.0144 35° Northeast 273 314 17,300 1,563 Climbing Washington Center
Fri 14:51:53 35.7125 -78.9483 37° Northeast 296 341 18,800 1,627 Climbing Washington Center
Fri 14:52:53 35.7875 -78.8822 36° Northeast 317 365 20,500 1,600 Climbing Washington Center
Fri 14:53:53 35.8622 -78.8161 36° Northeast 324 373 22,000 1,537 Climbing Washington Center
Fri 14:54:54 35.9369 -78.7500 36° Northeast 324 373 23,600 1,574 Climbing Washington Center
Fri 14:55:55 36.0139 -78.6811 36° Northeast 329 379 25,200 1,613 Climbing Washington Center
Fri 14:56:53 36.0889 -78.6122 37° Northeast 329 379 26,800 1,613 Climbing Washington Center
Fri 14:57:54 36.1656 -78.5431 36° Northeast 321 369 28,400 1,339 Climbing Washington Center
Fri 14:58:54 36.2381 -78.4764 37° Northeast 321 369 29,500 1,050 Climbing Washington Center
Fri 14:59:54 36.3150 -78.4069 36° Northeast 321 369 30,500 992 Climbing Washington Center
Fri 15:00:55 36.3917 -78.3375 36° Northeast 321 369 31,500 1,033 Climbing Washington Center
Fri 15:01:56 36.4683 -78.2653 37° Northeast 326 375 32,600 966 Climbing Washington Center
Fri 15:02:53 36.5472 -78.1956 35° Northeast 331 381 33,400 864 Climbing Washington Center
Fri 15:03:54 36.6153 -78.1331 36° Northeast 336 387 34,300 893 Climbing Washington Center
Fri 15:04:54 36.6897 -78.0578 39° Northeast 342 394 35,200 744 Climbing Washington Center
Fri 15:05:55 36.7706 -77.9825 37° Northeast 348 400 35,800 595 Climbing Washington Center
Fri 15:06:55 36.8514 -77.9097 36° Northeast 353 406 36,400 559 Climbing Washington Center
Fri 15:07:53 36.9300 -77.8342 38° Northeast 353 406 36,900 305 Climbing Washington Center
Fri 15:08:53 37.0169 -77.7536 36° Northeast 358 412 37,000 50 Climbing Washington Center
Fri 15:09:53 37.1039 -77.6753 36° Northeast 368 423 37,000  Level Washington Center
Fri 15:10:54 37.1931 -77.5917 37° Northeast 388 447 37,000  Level Washington Center
Fri 15:11:55 37.2842 -77.5078 36° Northeast 398 458 37,000  Level Washington Center
Fri 15:12:53 37.3772 -77.4186 37° Northeast 403 464 37,000  Level Washington Center
Fri 15:13:54 37.4725 -77.3294 37° Northeast 419 482 37,000  Level Washington Center
Fri 15:14:54 37.5675 -77.2397 37° Northeast 419 482 37,000  Level Washington Center
Fri 15:15:55 37.6647 -77.1447 38° Northeast 419 482 37,000  Level Washington Center
Fri 15:16:55 37.7575 -77.0547 37° Northeast 419 482 37,000  Level Washington Center
Fri 15:17:53 37.8547 -76.9619 37° Northeast 419 482 37,000  Level Washington Center
Fri 15:18:53 37.9517 -76.8664 38° Northeast 424 488 37,000  Level Washington Center
Fri 15:19:54 38.0464 -76.7756 37° Northeast 424 488 37,000  Level Washington Center
Fri 15:20:55 38.1411 -76.6847 37° Northeast 424 488 37,000  Level Washington Center
Fri 15:21:53 38.2358 -76.5908 38° Northeast 424 488 37,000  Level Washington Center
Fri 15:22:54 38.3386 -76.4892 38° Northeast 424 488 37,000  Level Washington Center
Fri 15:23:55 38.4353 -76.3975 37° Northeast 424 488 37,000  Level Washington Center
Fri 15:24:55 38.5275 -76.3056 38° Northeast 419 482 37,000  Level Washington Center
Fri 15:25:53 38.6219 -76.2108 38° Northeast 419 482 37,000  Level Washington Center
Fri 15:26:53 38.7119 -76.1292 35° Northeast 427 491 37,000  Level Washington Center
Fri 15:27:54 38.8061 -76.0311 39° Northeast 432 497 37,000  Level Washington Center
Fri 15:28:55 38.9003 -75.9358 38° Northeast 432 497 37,000  Level Washington Center
Fri 15:29:55 38.9964 -75.8428 37° Northeast 432 497 37,000  Level Washington Center
Fri 15:30:53 39.0903 -75.7467 38° Northeast 432 497 37,000  Level Washington Center
Fri 15:31:54 39.1864 -75.6506 38° Northeast 432 497 37,000  Level Washington Center
Fri 15:32:54 39.2800 -75.5567 38° Northeast 432 497 37,000  Level Washington Center
Fri 15:33:54 39.3758 -75.4572 39° Northeast 437 503 37,000  Level Washington Center
Fri 15:34:53 39.4717 -75.3631 37° Northeast 437 503 37,000  Level Washington Center
Fri 15:35:53 39.5653 -75.2658 39° Northeast 437 503 37,000  Level Washington Center
Fri 15:36:54 39.6586 -75.1711 38° Northeast 437 503 37,000  Level Washington Center
Fri 15:37:50 39.7450 -75.0800 39° Northeast 436 502 37,000  Level New Center
Fri 15:38:51 39.8383 -74.9828 39° Northeast 436 502 37,000  Level New Center
Fri 15:39:48 39.9314 -74.8831 39° Northeast 431 496 37,000 -51 Level New Center
Fri 15:40:49 40.0233 -74.7556 47° Northeast 426 490 36,900  Descending New Center
Fri 15:41:50 40.0903 -74.6236 56° Northeast 432 497 37,000 49 Climbing New Center
Fri 15:42:51 40.1219 -74.4789 74° East 437 503 37,000 -661 Level New Center
Fri 15:43:48 40.1581 -74.3206 73° East 442 509 35,700 -1,765 Descending New Center
Fri 15:44:50 40.2325 -74.2075 49° Northeast 416 479 33,500 -2,262 Descending New Center
Fri 15:45:50 40.3203 -74.1192 37° Northeast 399 459 31,100 -2,420 Descending New Center
Fri 15:46:49 40.4086 -74.0200 41° Northeast 399 459 28,700 -2,201 Descending New Center
Fri 15:48:39 40.5644 -73.8033 47° Northeast 423 487 24,900 -1,789 Descending Boston Center
Fri 15:49:40 40.6222 -73.6706 60° Northeast 446 513 23,600 -942 Descending Boston Center
Fri 15:50:40 40.6883 -73.5239 59° Northeast 456 525 23,000 -298 Descending Boston Center
Fri 15:51:41 40.7542 -73.3825 58° Northeast 456 525 23,000  Level Boston Center
Fri 15:52:38 40.8344 -73.2575 50° Northeast 456 525 23,000  Level Boston Center
Fri 15:53:39 40.9289 -73.1489 41° Northeast 445 512 23,000 -443 Level Boston Center
Fri 15:54:40 41.0233 -73.0344 42° Northeast 445 512 22,100 -1,488 Descending Boston Center
Fri 15:55:40 41.1156 -72.9278 41° Northeast 450 518 20,000 -1,884 Descending Boston Center
Fri 15:56:41 41.2078 -72.8208 41° Northeast 439 505 18,300 -1,576 Descending Boston Center
Fri 15:57:38 41.2914 -72.7247 41° Northeast 406 467 16,900 -1,424 Descending Boston Center
Fri 15:58:39 41.3997 -72.6586 25° Northeast 387 445 15,500 -934 Descending Boston Center
Fri 15:59:40 41.4936 -72.6147 19° North 387 445 15,000 -569 Descending Boston Center
Fri 16:00:56 41.6314 -72.5483 20° North 375 432 14,200 -915 Descending Boston Center
Fri 16:01:38 41.6814 -72.5014 35° Northeast 368 423 13,200 -1,482 Descending Boston Center
Fri 16:02:21 41.7461 -72.4317 39° Northeast 378 435 12,100 -1,475 Descending Boston Center
Fri 16:02:39 41.7731 -72.4039 38° Northeast 368 423 11,700 -1,138 Descending Boston Center
Fri 16:03:19 41.8211 -72.3508 39° Northeast 373 429 11,000 -689 Descending Boston Center
Fri 16:03:40 41.8439 -72.3231 42° Northeast 374 430 11,000  Level Boston Center
Fri 16:04:25 41.9083 -72.2531 39° Northeast 359 413 11,000 -200 Level Boston Center
Fri 16:04:40 41.9272 -72.2336 37° Northeast 363 418 10,800 -1,607 Descending Boston Center
Fri 16:05:21 41.9792 -72.1692 43° Northeast 350 403 9,500 -1,831 Descending Boston Center
Fri 16:05:39 41.9936 -72.1553 36° Northeast 352 405 9,000 -1,800 Descending Boston Center
Fri 16:06:21 42.0456 -72.0964 40° Northeast 307 353 7,700 -1,700 Descending Boston Center
Fri 16:06:39 42.0664 -72.0736 39° Northeast 321 369 7,300 -689 Descending Boston Center
Fri 16:07:22 42.1100 -72.0231 41° Northeast 292 336 7,000 -295 Descending Boston Center
Fri 16:07:40 42.1203 -72.0092 45° Northeast 297 342 7,000 -182 Level Boston Center
Fri 16:08:28 42.1742 -71.9528 38° Northeast 278 320 6,800 -500 Descending Boston Center
Fri 16:08:40 42.1889 -71.9358 40° Northeast 281 323 6,500 -1,222 Descending Boston Center
Fri 16:09:22 42.2322 -71.8933 36° Northeast 283 326 5,700 -1,180 Descending Boston Center
Fri 16:09:41 42.2508 -71.8650 48° Northeast 286 329 5,300 -545 Descending Boston Center
Fri 16:10:39 42.3069 -71.8056 38° Northeast 279 321 5,000 -153 Descending Boston Center
Fri 16:11:39 42.3606 -71.7264 47° Northeast 269 310 5,000 -397 Level Boston Center
Fri 16:12:40 42.3975 -71.6472 58° Northeast 253 291 4,200 -1,050 Descending Boston Center
Fri 16:13:39 42.4325 -71.5681 59° Northeast 242 278 2,900 -1,059 Descending Boston Center
Fri 16:14:39 42.4631 -71.4972 60° Northeast 242 278 2,100 -446 Descending Boston Center
Fri 16:15:40 42.4792 -71.4183 74° East 209 241 2,000 -504 Descending Boston Center
Fri 16:16:38 42.4786 -71.3619 91° East 178 205 1,100 -955 Descending Boston Center
Fri 16:17:08 42.4667 -71.3333 119° Southeast 142 163 600 6,836 Descending KA90
Fri 16:18:40 42.4692 -71.2439 88° East 151 174 15,000 5,760 Climbing Boston Center
Fri 16:19:38 42.4622 -71.1878 100° East 151 174 15,000  Level Boston Center
Fri 16:21:00 42.4699 -71.2890 276° West  Level Estimated
Fri 16:28:00 42.4699 -71.2890 North  Level Estimated
Fri 16:29:00 42.4699 -71.2890 North  Level Estimated
Fri 16:30:00 42.4699 -71.2890 North  Level Estimated
Fri 16:31:00 42.4699 -71.2890 North  Level Estimated
Fri 16:32:00 42.4699 -71.2890 North  Level Estimated
Fri 16:33:00 42.4699 -71.2890 North  Level Estimated
Fri 16:34:00 42.4699 -71.2890 North  Level Estimated

Login

Don't have an account? Register now (free) for customized features, flight alerts, and more!